createdAt,value
2018-12-31T00:00:32.972Z,36.80
2018-12-31T00:03:02.959Z,36.90
2018-12-31T00:05:32.645Z,34.87
2018-12-31T00:08:02.500Z,36.40
2018-12-31T00:10:32.040Z,35.27
2018-12-31T00:13:01.965Z,33.83
2018-12-31T00:15:31.562Z,34.60
2018-12-31T00:18:01.258Z,35.60
2018-12-31T00:20:31.033Z,36.97
2018-12-31T00:23:00.662Z,36.33
2018-12-31T00:25:30.304Z,36.43
2018-12-31T00:28:00.035Z,36.57
2018-12-31T00:30:30.312Z,36.17
2018-12-31T00:33:00.077Z,37.27
2018-12-31T00:35:29.916Z,37.33
2018-12-31T00:37:59.488Z,38.17
2018-12-31T00:40:29.267Z,36.83
2018-12-31T00:42:59.232Z,37.53
2018-12-31T00:45:29.130Z,38.47
2018-12-31T00:47:58.842Z,37.47
2018-12-31T00:50:28.418Z,39.17
2018-12-31T00:52:58.200Z,40.97
2018-12-31T00:55:27.759Z,41.50
2018-12-31T00:57:57.779Z,41.57
2018-12-31T01:00:27.491Z,41.53
2018-12-31T01:02:57.059Z,39.60
2018-12-31T01:05:26.679Z,41.00
2018-12-31T01:07:56.365Z,41.23
2018-12-31T01:10:25.945Z,39.60
2018-12-31T01:12:55.728Z,38.70
2018-12-31T01:15:25.507Z,40.10
2018-12-31T01:17:55.644Z,39.00
2018-12-31T01:20:25.580Z,37.97
2018-12-31T01:22:55.318Z,38.63
2018-12-31T01:25:25.039Z,39.50
2018-12-31T01:27:54.804Z,37.63
2018-12-31T01:30:24.429Z,38.10
2018-12-31T01:32:53.988Z,37.43
2018-12-31T01:35:23.752Z,35.17
2018-12-31T01:37:53.510Z,35.57
2018-12-31T01:40:23.130Z,35.77
2018-12-31T01:42:52.740Z,35.90
2018-12-31T01:45:22.575Z,34.37
2018-12-31T01:47:52.326Z,36.33
2018-12-31T01:50:22.006Z,36.00
2018-12-31T01:52:51.534Z,35.20
2018-12-31T01:55:21.341Z,33.87
2018-12-31T01:57:51.008Z,34.87
2018-12-31T02:00:20.851Z,33.53
2018-12-31T02:02:50.318Z,32.50
2018-12-31T02:05:20.038Z,30.07
2018-12-31T02:07:49.740Z,30.30
2018-12-31T02:10:19.339Z,29.57
2018-12-31T02:12:49.144Z,30.70
2018-12-31T02:15:18.752Z,30.90
2018-12-31T02:17:48.292Z,30.47
2018-12-31T02:20:17.898Z,31.43
2018-12-31T02:22:47.647Z,29.93
2018-12-31T02:25:17.311Z,29.90
2018-12-31T02:27:47.058Z,26.47
2018-12-31T02:30:16.778Z,27.23
2018-12-31T02:32:46.456Z,26.97
2018-12-31T02:35:16.132Z,25.40
2018-12-31T02:37:45.923Z,25.00
2018-12-31T02:40:15.509Z,25.37
2018-12-31T02:42:45.337Z,22.57
2018-12-31T02:45:15.010Z,21.87
2018-12-31T02:47:44.709Z,23.37
2018-12-31T02:50:14.361Z,22.20
2018-12-31T02:52:44.083Z,20.07
2018-12-31T02:55:13.798Z,19.17
2018-12-31T02:57:43.700Z,18.40
2018-12-31T03:00:13.331Z,17.90
2018-12-31T03:02:43.208Z,17.03
2018-12-31T03:05:12.860Z,17.50
2018-12-31T03:07:42.549Z,17.93
2018-12-31T03:10:12.083Z,18.03
2018-12-31T03:12:42.027Z,17.37
2018-12-31T03:15:11.613Z,17.50
2018-12-31T03:17:41.689Z,17.63
2018-12-31T03:20:11.589Z,17.80
2018-12-31T03:22:41.071Z,19.33
2018-12-31T03:25:10.900Z,19.90
2018-12-31T03:27:40.505Z,19.97
2018-12-31T03:30:10.354Z,20.43
2018-12-31T03:32:39.955Z,20.77
2018-12-31T03:35:09.690Z,20.20
2018-12-31T03:37:39.360Z,19.00
2018-12-31T03:40:09.193Z,17.67
2018-12-31T03:42:38.710Z,19.27
2018-12-31T03:45:08.628Z,20.83
2018-12-31T03:47:38.235Z,20.70
2018-12-31T03:50:08.622Z,21.47
2018-12-31T03:52:38.177Z,19.63
2018-12-31T03:55:07.912Z,19.10
2018-12-31T03:57:37.562Z,17.40
2018-12-31T04:00:07.965Z,17.43
2018-12-31T04:02:37.547Z,18.90
2018-12-31T04:05:07.354Z,18.97
2018-12-31T04:07:36.858Z,17.67
2018-12-31T04:10:06.666Z,18.27
2018-12-31T04:12:36.239Z,19.23
2018-12-31T04:15:06.701Z,18.13
2018-12-31T04:17:36.553Z,18.57
2018-12-31T04:20:06.778Z,18.40
2018-12-31T04:22:39.601Z,18.40
2018-12-31T04:25:09.203Z,17.97
2018-12-31T04:27:38.946Z,18.50
2018-12-31T04:30:08.604Z,17.87
2018-12-31T04:32:38.242Z,19.27
2018-12-31T04:35:07.988Z,20.27
2018-12-31T04:37:37.921Z,21.13
2018-12-31T04:40:07.674Z,20.73
2018-12-31T04:42:37.586Z,20.07
2018-12-31T04:45:07.427Z,20.23
2018-12-31T04:47:37.051Z,20.67
2018-12-31T04:50:06.864Z,20.03
2018-12-31T04:52:36.540Z,22.27
2018-12-31T04:55:06.276Z,22.03
2018-12-31T04:57:35.849Z,22.00
2018-12-31T05:00:07.677Z,21.67
2018-12-31T05:02:37.193Z,25.10
2018-12-31T05:05:06.980Z,23.73
2018-12-31T05:07:36.572Z,23.87
2018-12-31T05:10:07.412Z,25.83
2018-12-31T05:12:36.955Z,23.87
2018-12-31T05:15:07.045Z,27.70
2018-12-31T05:17:36.763Z,24.53
2018-12-31T05:20:07.290Z,25.20
2018-12-31T05:22:36.901Z,24.50
2018-12-31T05:25:06.667Z,27.50
2018-12-31T05:27:36.267Z,24.97
2018-12-31T05:30:06.458Z,31.07
2018-12-31T05:32:36.099Z,29.80
2018-12-31T05:35:06.006Z,31.23
2018-12-31T05:37:35.722Z,30.07
2018-12-31T05:40:05.952Z,32.00
2018-12-31T05:42:35.507Z,31.47
2018-12-31T05:45:05.448Z,31.33
2018-12-31T05:47:35.000Z,28.17
2018-12-31T05:50:05.088Z,29.23
2018-12-31T05:52:34.897Z,29.43
2018-12-31T05:55:04.589Z,30.27
2018-12-31T05:57:34.312Z,28.97
2018-12-31T06:00:04.826Z,31.60
2018-12-31T06:02:34.325Z,33.10
2018-12-31T06:05:03.991Z,32.07
2018-12-31T06:07:33.554Z,32.33
2018-12-31T06:10:03.477Z,32.33
2018-12-31T06:12:33.048Z,33.53
2018-12-31T06:15:02.914Z,33.53
2018-12-31T06:17:32.476Z,36.10
2018-12-31T06:20:02.212Z,31.07
2018-12-31T06:22:31.849Z,30.17
2018-12-31T06:25:01.662Z,30.53
2018-12-31T06:27:31.203Z,30.00
2018-12-31T06:30:02.315Z,28.53
2018-12-31T06:32:32.267Z,27.43
2018-12-31T06:35:01.843Z,24.70
2018-12-31T06:37:31.356Z,24.63
2018-12-31T06:40:00.971Z,24.50
2018-12-31T06:42:30.505Z,22.73
2018-12-31T06:45:00.444Z,21.87
2018-12-31T06:47:30.116Z,20.47
2018-12-31T06:49:59.796Z,21.20
2018-12-31T06:52:29.382Z,21.00
2018-12-31T06:54:59.154Z,20.57
2018-12-31T06:57:28.775Z,19.27
2018-12-31T06:59:58.474Z,19.07
2018-12-31T07:02:28.073Z,18.90
2018-12-31T07:04:57.831Z,16.53
2018-12-31T07:07:27.373Z,16.20
2018-12-31T07:09:56.850Z,16.53
2018-12-31T07:12:26.592Z,16.27
2018-12-31T07:14:56.221Z,16.20
2018-12-31T07:17:26.052Z,15.37
2018-12-31T07:19:55.686Z,14.57
2018-12-31T07:22:25.442Z,14.60
2018-12-31T07:24:55.017Z,15.27
2018-12-31T07:27:24.846Z,14.63
2018-12-31T07:29:56.205Z,14.97
2018-12-31T07:32:25.732Z,15.50
2018-12-31T07:34:55.386Z,15.23
2018-12-31T07:37:25.130Z,15.20
2018-12-31T07:39:54.897Z,14.57
2018-12-31T07:42:24.502Z,15.10
2018-12-31T07:44:54.221Z,14.87
2018-12-31T07:47:23.890Z,15.23
2018-12-31T07:49:53.794Z,14.80
2018-12-31T07:52:23.447Z,14.13
2018-12-31T07:54:53.141Z,14.83
2018-12-31T07:57:22.751Z,15.43
2018-12-31T07:59:52.511Z,15.33
2018-12-31T08:02:22.091Z,15.13
2018-12-31T08:04:52.095Z,15.10
2018-12-31T08:07:21.691Z,14.77
2018-12-31T08:09:51.396Z,14.27
2018-12-31T08:12:20.995Z,15.00
2018-12-31T08:14:50.754Z,14.70
2018-12-31T08:17:20.351Z,14.60
2018-12-31T08:19:49.941Z,14.13
2018-12-31T08:22:19.767Z,13.70
2018-12-31T08:24:49.269Z,12.97
2018-12-31T08:27:19.035Z,13.20
2018-12-31T08:29:48.664Z,12.73
2018-12-31T08:32:18.227Z,12.53
2018-12-31T08:34:47.908Z,11.90
2018-12-31T08:37:17.632Z,12.33
2018-12-31T08:39:47.296Z,11.97
2018-12-31T08:42:17.032Z,11.33
2018-12-31T08:44:46.710Z,9.80
2018-12-31T08:47:16.496Z,10.53
2018-12-31T08:49:46.139Z,9.73
2018-12-31T08:52:15.857Z,9.80
2018-12-31T08:54:45.541Z,9.40
2018-12-31T08:57:15.726Z,9.50
2018-12-31T08:59:45.537Z,9.10
2018-12-31T09:02:15.300Z,9.13
2018-12-31T09:04:44.975Z,9.40
2018-12-31T09:07:14.655Z,9.47
2018-12-31T09:09:44.377Z,9.60
2018-12-31T09:12:14.015Z,9.20
2018-12-31T09:14:43.740Z,10.07
2018-12-31T09:17:13.450Z,9.00
2018-12-31T09:19:43.099Z,9.13
2018-12-31T09:22:13.060Z,8.93
2018-12-31T09:24:44.715Z,9.07
2018-12-31T09:27:14.228Z,8.83
2018-12-31T09:29:43.967Z,8.43
2018-12-31T09:32:13.532Z,8.60
2018-12-31T09:34:43.110Z,8.70
2018-12-31T09:37:13.074Z,8.97
2018-12-31T09:39:42.818Z,7.67
2018-12-31T09:42:12.511Z,7.57
2018-12-31T09:44:42.231Z,7.87
2018-12-31T09:47:11.975Z,8.30
2018-12-31T09:49:41.624Z,8.53
2018-12-31T09:52:11.386Z,8.80
2018-12-31T09:54:41.161Z,8.40
2018-12-31T09:57:11.191Z,8.00
2018-12-31T09:59:40.809Z,7.67
2018-12-31T10:02:10.429Z,8.33
2018-12-31T10:04:40.310Z,8.53
2018-12-31T10:07:10.193Z,7.80
2018-12-31T10:09:39.844Z,10.60
2018-12-31T10:12:09.525Z,9.63
2018-12-31T10:14:39.199Z,8.73
2018-12-31T10:17:08.931Z,8.83
2018-12-31T10:19:38.599Z,7.53
2018-12-31T10:22:08.330Z,7.47
2018-12-31T10:24:38.011Z,7.77
2018-12-31T10:27:08.093Z,7.37
2018-12-31T10:29:37.707Z,7.50
2018-12-31T10:32:07.284Z,7.50
2018-12-31T10:34:36.873Z,6.90
2018-12-31T10:37:06.737Z,8.03
2018-12-31T10:39:36.312Z,7.30
2018-12-31T10:42:06.156Z,7.60
2018-12-31T10:44:35.714Z,7.53
2018-12-31T10:47:05.465Z,7.40
2018-12-31T10:49:35.105Z,6.93
2018-12-31T10:52:04.889Z,6.80
2018-12-31T10:54:34.438Z,7.13
2018-12-31T10:57:04.266Z,7.33
2018-12-31T10:59:33.913Z,7.00
2018-12-31T11:02:03.774Z,7.40
2018-12-31T11:04:33.326Z,7.67
2018-12-31T11:07:03.170Z,7.60
2018-12-31T11:09:32.711Z,7.77
2018-12-31T11:12:02.595Z,9.03
2018-12-31T11:14:32.160Z,8.40
2018-12-31T11:17:02.015Z,8.73
2018-12-31T11:19:33.434Z,10.27
2018-12-31T11:22:03.299Z,10.43
2018-12-31T11:24:32.884Z,9.00
2018-12-31T11:27:02.805Z,9.67
2018-12-31T11:29:32.357Z,8.87
2018-12-31T11:32:02.249Z,8.90
2018-12-31T11:34:31.846Z,8.90
2018-12-31T11:37:01.593Z,9.00
2018-12-31T11:39:31.158Z,9.30
2018-12-31T11:42:01.050Z,9.77
2018-12-31T11:44:30.632Z,9.93
2018-12-31T11:47:00.443Z,12.90
2018-12-31T11:49:30.162Z,12.10
2018-12-31T11:51:59.839Z,11.27
2018-12-31T11:54:29.494Z,15.97
2018-12-31T11:56:59.150Z,9.97
2018-12-31T11:59:28.883Z,9.33
2018-12-31T12:01:58.710Z,9.60
2018-12-31T12:04:28.303Z,10.40
2018-12-31T12:06:58.035Z,9.73
2018-12-31T12:09:27.765Z,9.80
2018-12-31T12:11:57.629Z,10.13
2018-12-31T12:14:27.368Z,10.40
2018-12-31T12:16:56.939Z,12.73
2018-12-31T12:19:26.556Z,12.60
2018-12-31T12:21:56.354Z,14.57
2018-12-31T12:24:25.916Z,12.43
2018-12-31T12:26:55.800Z,13.37
2018-12-31T12:29:25.654Z,13.40
2018-12-31T12:31:55.239Z,13.73
2018-12-31T12:34:25.542Z,14.47
2018-12-31T12:36:55.087Z,12.73
2018-12-31T12:39:25.014Z,13.67
2018-12-31T12:41:54.654Z,13.77
2018-12-31T12:44:24.493Z,13.17
2018-12-31T12:46:54.572Z,12.77
2018-12-31T12:49:24.636Z,12.43
2018-12-31T12:51:54.509Z,13.03
2018-12-31T12:54:24.119Z,13.23
2018-12-31T12:56:53.875Z,13.40
2018-12-31T12:59:23.863Z,13.60
2018-12-31T13:01:53.792Z,12.80
2018-12-31T13:04:23.361Z,13.70
2018-12-31T13:06:53.110Z,14.07
2018-12-31T13:09:22.744Z,14.63
2018-12-31T13:11:52.607Z,14.53
2018-12-31T13:14:23.998Z,13.30
2018-12-31T13:16:53.853Z,13.93
2018-12-31T13:19:23.509Z,14.10
2018-12-31T13:21:53.229Z,14.73
2018-12-31T13:24:22.878Z,13.80
2018-12-31T13:26:52.505Z,14.07
2018-12-31T13:29:22.323Z,14.93
2018-12-31T13:31:52.174Z,12.90
2018-12-31T13:34:21.737Z,12.83
2018-12-31T13:36:51.542Z,13.37
2018-12-31T13:39:21.278Z,12.77
2018-12-31T13:41:51.378Z,13.73
2018-12-31T13:44:21.140Z,14.90
2018-12-31T13:46:50.973Z,14.40
2018-12-31T13:49:20.495Z,12.30
2018-12-31T13:51:50.223Z,12.87
2018-12-31T13:54:19.992Z,12.30
2018-12-31T13:56:49.580Z,12.17
2018-12-31T13:59:19.472Z,12.00
2018-12-31T14:01:50.268Z,11.97
2018-12-31T14:04:20.276Z,13.67
2018-12-31T14:06:50.068Z,11.97
2018-12-31T14:09:19.694Z,11.97
2018-12-31T14:11:49.315Z,13.97
2018-12-31T14:14:19.083Z,12.87
2018-12-31T14:16:48.797Z,12.87
2018-12-31T14:19:18.486Z,12.40
2018-12-31T14:21:48.326Z,13.17
2018-12-31T14:24:18.474Z,12.40
2018-12-31T14:26:48.085Z,13.30
2018-12-31T14:29:17.854Z,13.07
2018-12-31T14:31:47.547Z,13.27
2018-12-31T14:34:18.391Z,13.40
2018-12-31T14:36:47.985Z,13.03
2018-12-31T14:39:17.710Z,13.40
2018-12-31T14:41:47.272Z,12.60
2018-12-31T14:44:17.125Z,13.07
2018-12-31T14:46:56.063Z,12.63
2018-12-31T14:49:25.659Z,12.57
2018-12-31T14:51:55.479Z,13.57
2018-12-31T14:54:25.158Z,14.20
2018-12-31T14:56:54.974Z,13.57
2018-12-31T14:59:24.594Z,14.23
2018-12-31T15:01:54.822Z,14.03
2018-12-31T15:04:24.568Z,14.53
2018-12-31T15:06:54.104Z,14.30
2018-12-31T15:09:24.108Z,15.17
2018-12-31T15:11:53.715Z,14.07
2018-12-31T15:14:23.529Z,14.47
2018-12-31T15:16:53.521Z,14.87
2018-12-31T15:19:23.143Z,15.60
2018-12-31T15:21:53.259Z,14.07
2018-12-31T15:24:23.128Z,13.93
2018-12-31T15:26:52.793Z,13.53
2018-12-31T15:29:22.582Z,13.10
2018-12-31T15:31:52.183Z,14.27
2018-12-31T15:34:22.060Z,14.67
2018-12-31T15:36:51.626Z,15.17
2018-12-31T15:39:21.517Z,14.40
2018-12-31T15:41:51.258Z,15.30
2018-12-31T15:44:20.823Z,15.33
2018-12-31T15:46:50.533Z,17.03
2018-12-31T15:49:20.222Z,16.60
2018-12-31T15:51:49.874Z,16.73
2018-12-31T15:54:19.732Z,17.10
2018-12-31T15:56:49.420Z,16.87
2018-12-31T15:59:19.083Z,17.47
2018-12-31T16:01:48.845Z,16.83
2018-12-31T16:04:18.878Z,16.53
2018-12-31T16:06:48.814Z,16.93
2018-12-31T16:09:18.474Z,17.73
2018-12-31T16:11:48.088Z,18.00
2018-12-31T16:14:17.860Z,17.43
2018-12-31T16:16:47.571Z,17.33
2018-12-31T16:19:17.238Z,19.23
2018-12-31T16:21:47.292Z,21.80
2018-12-31T16:24:17.157Z,19.73
2018-12-31T16:26:46.743Z,23.27
2018-12-31T16:29:16.593Z,26.03
2018-12-31T16:31:46.160Z,26.07
2018-12-31T16:34:15.931Z,25.10
2018-12-31T16:36:45.521Z,26.20
2018-12-31T16:39:15.372Z,22.70
2018-12-31T16:41:44.972Z,23.53
2018-12-31T16:44:14.905Z,20.70
2018-12-31T16:46:44.537Z,22.67
2018-12-31T16:49:14.298Z,22.13
2018-12-31T16:51:44.131Z,20.60
2018-12-31T16:54:13.808Z,21.47
2018-12-31T16:56:43.361Z,23.33
2018-12-31T16:59:12.969Z,22.23
2018-12-31T17:01:42.753Z,22.57
2018-12-31T17:04:12.471Z,24.90
2018-12-31T17:06:42.121Z,26.50
2018-12-31T17:09:11.857Z,27.07
2018-12-31T17:11:41.522Z,22.80
2018-12-31T17:14:11.226Z,23.90
2018-12-31T17:16:40.985Z,26.37
2018-12-31T17:19:10.673Z,24.30
2018-12-31T17:21:40.542Z,25.20
2018-12-31T17:24:10.204Z,23.97
2018-12-31T17:26:39.791Z,25.30
2018-12-31T17:29:09.563Z,22.67
2018-12-31T17:31:39.189Z,21.70
2018-12-31T17:34:09.257Z,23.73
2018-12-31T17:36:39.161Z,21.93
2018-12-31T17:39:09.414Z,22.17
2018-12-31T17:41:39.227Z,22.53
2018-12-31T17:44:08.801Z,21.93
2018-12-31T17:46:39.066Z,23.40
2018-12-31T17:49:08.741Z,22.03
2018-12-31T17:51:38.436Z,23.13
2018-12-31T17:54:08.092Z,22.33
2018-12-31T17:56:37.692Z,22.00
2018-12-31T17:59:07.462Z,23.10
2018-12-31T18:01:37.173Z,21.60
2018-12-31T18:04:06.711Z,21.73
2018-12-31T18:06:36.281Z,22.13
2018-12-31T18:09:07.785Z,22.63
2018-12-31T18:11:37.441Z,22.10
2018-12-31T18:14:07.421Z,22.63
2018-12-31T18:16:37.056Z,21.10
2018-12-31T18:19:06.706Z,21.43
2018-12-31T18:21:36.267Z,22.47
2018-12-31T18:24:06.228Z,20.53
2018-12-31T18:26:35.781Z,20.67
2018-12-31T18:29:05.487Z,23.60
2018-12-31T18:31:35.082Z,28.07
2018-12-31T18:34:05.256Z,23.50
2018-12-31T18:36:35.239Z,23.27
2018-12-31T18:39:06.797Z,23.33
2018-12-31T18:41:36.954Z,23.63
2018-12-31T18:44:06.698Z,20.73
2018-12-31T18:46:37.329Z,22.03
2018-12-31T18:49:07.341Z,24.90
2018-12-31T18:51:37.406Z,23.70
2018-12-31T18:54:07.107Z,23.73
2018-12-31T18:56:36.782Z,26.23
2018-12-31T18:59:06.432Z,23.40
2018-12-31T19:01:36.108Z,27.43
2018-12-31T19:04:05.654Z,20.67
2018-12-31T19:06:35.561Z,23.30
2018-12-31T19:09:07.208Z,18.73
2018-12-31T19:11:37.146Z,21.20
2018-12-31T19:14:06.638Z,20.73
2018-12-31T19:16:36.313Z,20.97
2018-12-31T19:19:06.118Z,24.10
2018-12-31T19:21:36.103Z,16.77
2018-12-31T19:24:05.993Z,19.03
2018-12-31T19:26:35.568Z,25.43
2018-12-31T19:29:05.341Z,25.87
2018-12-31T19:31:35.032Z,25.30
2018-12-31T19:34:05.116Z,24.90
2018-12-31T19:36:35.178Z,24.77
2018-12-31T19:39:06.187Z,21.20
2018-12-31T19:41:35.802Z,20.73
2018-12-31T19:44:06.179Z,21.20
2018-12-31T19:46:35.947Z,18.27
2018-12-31T19:49:05.517Z,18.93
2018-12-31T19:51:35.203Z,15.93
2018-12-31T19:54:04.858Z,16.97
2018-12-31T19:56:34.577Z,14.73
2018-12-31T19:59:04.163Z,14.07
2018-12-31T20:01:33.896Z,15.67
2018-12-31T20:04:03.619Z,17.33
2018-12-31T20:06:33.640Z,15.70
2018-12-31T20:09:04.686Z,15.40
2018-12-31T20:11:34.417Z,17.10
2018-12-31T20:14:04.246Z,18.83
2018-12-31T20:16:33.816Z,18.33
2018-12-31T20:19:03.492Z,20.20
2018-12-31T20:21:33.546Z,22.83
2018-12-31T20:24:03.316Z,19.47
2018-12-31T20:26:33.017Z,19.50
2018-12-31T20:29:02.690Z,20.97
2018-12-31T20:31:32.814Z,18.57
2018-12-31T20:34:02.609Z,20.37
2018-12-31T20:36:32.330Z,19.73
2018-12-31T20:39:02.087Z,21.03
2018-12-31T20:41:31.746Z,21.67
2018-12-31T20:44:01.449Z,22.03
2018-12-31T20:46:31.217Z,26.33
2018-12-31T20:49:20.032Z,24.10
2018-12-31T20:51:49.957Z,22.37
2018-12-31T20:54:19.716Z,27.87
2018-12-31T20:56:49.456Z,23.60
2018-12-31T20:59:19.410Z,25.53
2018-12-31T21:01:48.923Z,32.40
2018-12-31T21:04:18.649Z,28.87
2018-12-31T21:06:48.236Z,28.40
2018-12-31T21:09:17.821Z,33.07
2018-12-31T21:11:47.655Z,26.73
2018-12-31T21:14:17.205Z,27.87
2018-12-31T21:16:47.076Z,27.00
2018-12-31T21:19:16.915Z,28.20
2018-12-31T21:21:46.551Z,28.53
2018-12-31T21:24:16.379Z,30.27
2018-12-31T21:26:45.999Z,29.67
2018-12-31T21:29:15.804Z,30.30
2018-12-31T21:31:45.425Z,31.17
2018-12-31T21:34:15.121Z,29.87
2018-12-31T21:36:44.811Z,29.17
2018-12-31T21:39:14.631Z,28.93
2018-12-31T21:41:44.289Z,30.20
2018-12-31T21:44:14.015Z,30.83
2018-12-31T21:46:43.596Z,30.47
2018-12-31T21:49:13.402Z,31.17
2018-12-31T21:51:43.122Z,29.47
2018-12-31T21:54:12.895Z,30.53
2018-12-31T21:56:42.459Z,28.37
2018-12-31T21:59:12.230Z,29.63
2018-12-31T22:01:41.909Z,30.43
2018-12-31T22:04:11.731Z,29.67
2018-12-31T22:06:41.349Z,28.80
2018-12-31T22:09:11.048Z,30.53
2018-12-31T22:11:40.680Z,27.90
2018-12-31T22:14:10.438Z,27.73
2018-12-31T22:16:40.165Z,29.17
2018-12-31T22:19:09.711Z,33.63
2018-12-31T22:21:39.355Z,28.67
2018-12-31T22:24:09.240Z,25.93
2018-12-31T22:26:39.024Z,25.00
2018-12-31T22:29:08.680Z,29.87
2018-12-31T22:31:38.526Z,26.83
2018-12-31T22:34:08.239Z,27.50
2018-12-31T22:36:38.460Z,24.17
2018-12-31T22:39:08.128Z,25.50
2018-12-31T22:41:37.839Z,23.83
2018-12-31T22:44:07.404Z,23.90
2018-12-31T22:46:37.174Z,20.67
2018-12-31T22:49:07.393Z,23.23
2018-12-31T22:51:36.963Z,25.43
2018-12-31T22:54:06.810Z,30.33
2018-12-31T22:56:36.463Z,29.70
2018-12-31T22:59:06.317Z,33.87
2018-12-31T23:01:35.955Z,30.10
2018-12-31T23:04:05.653Z,43.53
2018-12-31T23:06:35.947Z,196.73
2018-12-31T23:09:09.227Z,92.07
2018-12-31T23:11:39.229Z,109.23
2018-12-31T23:14:08.793Z,118.40
2018-12-31T23:16:38.666Z,121.40
2018-12-31T23:19:08.158Z,99.63
2018-12-31T23:21:38.430Z,121.00
2018-12-31T23:24:08.314Z,115.87
2018-12-31T23:26:37.840Z,144.60
2018-12-31T23:29:07.625Z,76.90
2018-12-31T23:31:37.239Z,70.43
2018-12-31T23:34:06.998Z,60.83
2018-12-31T23:36:37.229Z,53.53
2018-12-31T23:39:07.955Z,147.40
2018-12-31T23:41:37.647Z,51.23
2018-12-31T23:44:07.326Z,42.53
2018-12-31T23:46:37.066Z,39.93
2018-12-31T23:49:06.708Z,43.37
2018-12-31T23:51:36.405Z,48.30
2018-12-31T23:54:06.820Z,40.47
2018-12-31T23:56:36.408Z,37.00
2018-12-31T23:59:06.368Z,34.47
